グアム の空港の天気 - METARとTAF

グアム国際空港 ( PGUM / GUM ) - グアム ハガニア
飛行場実況気象(Metar)
観測時間05/28 04:54 ChST (05/27 18:54 UTC)
風向・風速東 4m/s
視程10km以上
天気現象
少しの雲 雲底高度 910m
気温28.3℃
湿度85%
気圧1010.6hPa
METARPGUM 271854Z 09007KT 10SM FEW030 28/26 A2987 RMK AO2 SLP106 T02830256 $
過去の天気等 Google飛行場航空写真 Wunderground天気予報

過去48時間のMETAR

飛行場予報(TAF)
発表時間: 5/28 03:20 ChST (5/27 17:20 UTC)
予報対象時間: 28日4時 ChST ~ 29日10時 ChST
風向・風速東 5m/s
視程10km以上
天気現象周辺でしゅう雨
全天の4割程度の雲 雲底高度 610m
全天の4割程度の雲 雲底高度 1,070m
28日9時 ChST から
風向・風速東 7m/s 瞬間風速 10m/s
視程10km以上
天気現象周辺でしゅう雨
全天の4割程度の雲 雲底高度 610m
全天の4割程度の雲 雲底高度 1,220m
28日19時 ChST から
風向・風速東 5m/s
視程10km以上
天気現象周辺でしゅう雨
全天の4割程度の雲 雲底高度 610m
全天の4割程度の雲 雲底高度 1,220m
PGUM 271720Z 2718/2824 09009KT P6SM VCSH SCT020 SCT035
FM272300 09014G20KT P6SM VCSH SCT020 SCT040
FM280900 08009KT P6SM VCSH SCT020 SCT040